Main page
METAR-TAF:

METAR-TAF

Airports :

Burgas Airport

Burgas, Bulgaria

latitude: 42-29N, longitude: 027-29E, elevation: 16 m

Current weather observation

The report was made 24 minutes ago, at 15:30 UTC
Wind 8 kt from the East
Temperature 10°C
Humidity 66%
Pressure 1031 hPa
Visibility 10 km or more
Few clouds at a height of 4000 ft

METAR: LBBG 251530Z 08008KT 9999 FEW040 10/04 Q1031 NOSIG

Time: 18:54 (15:54 UTC)

Forecast

The report was made 4 hours and 54 minutes ago, at 11:00 UTC
Forecast valid from 25 at 12 UTC to 26 at 12 UTC
Wind 10 kt from the East
Visibility 10 km or more
Scattered clouds at a height of 4000 ft
Becoming
from 25 at 18 UTC to 25 at 20 UTC
Wind 10 kt from the North
Broken clouds at a height of 4000 ft
Temporary
from 26 at 02 UTC to 26 at 06 UTC
Broken clouds at a height of 1500 ft
Overcast at a height of 2500 ft

TAF: LBBG 251100Z 2512/2612 08010KT 9999 SCT040 BECMG 2518/2520 01010KT BKN040 TEMPO 2602/2606 BKN015 OVC025

Weather observations and forecasts of more than 4000 airports (METAR and TAF reports).

The available stations are represented by yellow and red dots on the map.

Hover mouse over dot to see the name of the station.

Then click to see weather observations and forecasts.

To change the map : click on the green buttons with a black cross to zoom in, on the green button with a dash to zoom out, or on the green arrows for adjacent maps.


METAR-TAF: